createdAt,value
2018-07-04T00:01:10.167Z,20.33
2018-07-04T00:03:49.901Z,20.41
2018-07-04T00:06:29.731Z,20.51
2018-07-04T00:09:09.559Z,20.61
2018-07-04T00:11:49.184Z,20.66
2018-07-04T00:14:29.001Z,20.68
2018-07-04T00:17:08.790Z,20.69
2018-07-04T00:19:48.391Z,20.69
2018-07-04T00:22:28.208Z,20.73
2018-07-04T00:25:07.832Z,20.70
2018-07-04T00:27:47.602Z,20.71
2018-07-04T00:30:27.363Z,20.75
2018-07-04T00:33:07.102Z,20.78
2018-07-04T00:35:46.779Z,20.73
2018-07-04T00:38:26.662Z,20.74
2018-07-04T00:41:06.131Z,20.75
2018-07-04T00:43:45.818Z,20.76
2018-07-04T00:46:25.370Z,20.77
2018-07-04T00:49:05.220Z,20.72
2018-07-04T00:51:44.960Z,20.62
2018-07-04T00:54:24.639Z,20.58
2018-07-04T00:57:04.410Z,20.60
2018-07-04T00:59:44.427Z,20.61
2018-07-04T01:02:24.370Z,20.64
2018-07-04T01:05:04.059Z,20.61
2018-07-04T01:07:43.807Z,20.53
2018-07-04T01:10:23.477Z,20.28
2018-07-04T01:13:03.248Z,20.41
2018-07-04T01:15:43.132Z,20.34
2018-07-04T01:18:22.882Z,20.32
2018-07-04T01:21:07.798Z,20.31
2018-07-04T01:23:47.694Z,20.31
2018-07-04T01:26:27.435Z,20.28
2018-07-04T01:29:07.544Z,20.25
2018-07-04T01:31:47.275Z,20.23
2018-07-04T01:34:27.039Z,20.19
2018-07-04T01:37:06.873Z,20.17
2018-07-04T01:39:46.640Z,20.17
2018-07-04T01:42:26.362Z,20.14
2018-07-04T01:45:06.308Z,20.18
2018-07-04T01:47:46.046Z,20.22
2018-07-04T01:50:25.823Z,20.17
2018-07-04T01:53:05.533Z,20.11
2018-07-04T01:55:45.272Z,20.09
2018-07-04T01:58:24.933Z,20.08
2018-07-04T02:01:04.590Z,20.06
2018-07-04T02:03:44.221Z,20.04
2018-07-04T02:06:25.098Z,19.95
2018-07-04T02:09:05.284Z,19.90
2018-07-04T02:11:45.567Z,19.88
2018-07-04T02:14:25.437Z,19.84
2018-07-04T02:17:05.347Z,19.86
2018-07-04T02:19:45.106Z,19.84
2018-07-04T02:22:24.791Z,19.76
2018-07-04T02:25:04.546Z,19.69
2018-07-04T02:27:44.421Z,19.58
2018-07-04T02:30:24.126Z,19.56
2018-07-04T02:33:04.045Z,19.54
2018-07-04T02:35:43.783Z,19.54
2018-07-04T02:38:23.528Z,19.55
2018-07-04T02:41:03.315Z,19.58
2018-07-04T02:43:43.118Z,19.57
2018-07-04T02:46:28.103Z,19.52
2018-07-04T02:49:07.762Z,19.47
2018-07-04T02:51:47.391Z,19.48
2018-07-04T02:54:27.132Z,19.40
2018-07-04T02:57:06.849Z,19.40
2018-07-04T02:59:46.507Z,19.38
2018-07-04T03:02:26.230Z,19.34
2018-07-04T03:05:05.917Z,19.33
2018-07-04T03:07:45.748Z,19.37
2018-07-04T03:10:25.576Z,19.42
2018-07-04T03:13:05.323Z,19.44
2018-07-04T03:15:44.980Z,19.47
2018-07-04T03:18:24.547Z,19.45
2018-07-04T03:21:04.247Z,19.40
2018-07-04T03:23:44.347Z,19.30
2018-07-04T03:26:24.047Z,19.31
2018-07-04T03:29:03.653Z,19.31
2018-07-04T03:31:43.428Z,19.35
2018-07-04T03:34:23.148Z,19.32
2018-07-04T03:37:02.900Z,19.31
2018-07-04T03:39:42.570Z,19.29
2018-07-04T03:42:22.500Z,19.44
2018-07-04T03:45:02.253Z,19.53
2018-07-04T03:47:42.042Z,19.61
2018-07-04T03:50:21.624Z,19.71
2018-07-04T03:53:01.419Z,19.74
2018-07-04T03:55:41.019Z,19.83
2018-07-04T03:58:21.004Z,19.89
2018-07-04T04:01:00.862Z,19.90
2018-07-04T04:03:40.691Z,19.98
2018-07-04T04:06:20.511Z,20.08
2018-07-04T04:09:00.135Z,20.11
2018-07-04T04:11:39.779Z,20.15
2018-07-04T04:14:19.371Z,20.16
2018-07-04T04:16:58.974Z,20.14
2018-07-04T04:19:38.690Z,20.23
2018-07-04T04:22:18.353Z,20.30
2018-07-04T04:24:58.044Z,20.34
2018-07-04T04:27:37.662Z,20.46
2018-07-04T04:30:17.566Z,20.53
2018-07-04T04:32:57.940Z,20.71
2018-07-04T04:35:37.594Z,20.80
2018-07-04T04:38:17.239Z,20.79
2018-07-04T04:40:56.896Z,20.78
2018-07-04T04:43:36.537Z,20.78
2018-07-04T04:46:16.635Z,20.79
2018-07-04T04:48:56.369Z,20.82
2018-07-04T04:51:36.083Z,20.82
2018-07-04T04:54:15.882Z,20.87
2018-07-04T04:56:55.584Z,20.99
2018-07-04T04:59:35.385Z,20.99
2018-07-04T05:02:15.165Z,20.88
2018-07-04T05:04:55.372Z,20.79
2018-07-04T05:07:34.988Z,20.91
2018-07-04T05:10:14.756Z,20.95
2018-07-04T05:12:54.668Z,21.11
2018-07-04T05:15:34.507Z,21.31
2018-07-04T05:18:14.163Z,21.41
2018-07-04T05:20:53.755Z,21.53
2018-07-04T05:23:33.433Z,21.73
2018-07-04T05:26:13.167Z,21.87
2018-07-04T05:28:53.081Z,21.81
2018-07-04T05:31:32.778Z,21.87
2018-07-04T05:34:12.445Z,22.03
2018-07-04T05:36:52.129Z,22.01
2018-07-04T05:39:31.727Z,22.02
2018-07-04T05:42:11.732Z,22.01
2018-07-04T05:44:51.514Z,22.05
2018-07-04T05:47:31.149Z,22.53
2018-07-04T05:50:10.771Z,22.54
2018-07-04T05:52:50.518Z,22.53
2018-07-04T05:55:30.282Z,22.51
2018-07-04T05:58:10.020Z,22.65
2018-07-04T06:00:49.928Z,22.53
2018-07-04T06:03:29.631Z,23.02
2018-07-04T06:06:09.993Z,23.47
2018-07-04T06:08:49.743Z,23.10
2018-07-04T06:11:29.632Z,23.28
2018-07-04T06:14:09.422Z,24.00
2018-07-04T06:16:49.213Z,24.15
2018-07-04T06:19:28.891Z,24.44
2018-07-04T06:22:08.586Z,25.18
2018-07-04T06:24:48.819Z,26.01
2018-07-04T06:27:28.512Z,25.08
2018-07-04T06:30:08.259Z,24.35
2018-07-04T06:32:47.879Z,23.69
2018-07-04T06:35:27.684Z,24.28
2018-07-04T06:37:55.047Z,26.12
2018-07-04T06:40:22.397Z,27.03
2018-07-04T06:42:50.088Z,28.01
2018-07-04T06:45:17.718Z,27.49
2018-07-04T06:47:45.076Z,26.76
2018-07-04T06:50:12.455Z,26.68
2018-07-04T06:52:39.796Z,25.98
2018-07-04T06:55:07.160Z,25.52
2018-07-04T06:57:34.511Z,25.51
2018-07-04T07:00:01.859Z,25.46
2018-07-04T07:02:29.316Z,25.80
2018-07-04T07:05:09.062Z,26.91
2018-07-04T07:07:48.954Z,27.52
2018-07-04T07:10:28.574Z,27.09
2018-07-04T07:13:08.550Z,26.82
2018-07-04T07:15:48.272Z,27.02
2018-07-04T07:18:27.943Z,26.47
2018-07-04T07:21:08.242Z,26.82
2018-07-04T07:23:47.959Z,27.67
2018-07-04T07:26:27.621Z,27.59
2018-07-04T07:29:08.605Z,27.07
2018-07-04T07:31:48.340Z,27.83
2018-07-04T07:34:27.944Z,28.21
2018-07-04T07:37:07.847Z,28.65
2018-07-04T07:39:47.757Z,29.08
2018-07-04T07:42:27.356Z,28.84
2018-07-04T07:45:07.127Z,29.67
2018-07-04T07:47:46.818Z,30.03
2018-07-04T07:50:26.482Z,30.25
2018-07-04T07:53:06.165Z,30.37
2018-07-04T07:55:46.263Z,30.12
2018-07-04T07:58:26.093Z,30.40
2018-07-04T08:01:05.969Z,29.43
2018-07-04T08:03:45.694Z,30.09
2018-07-04T08:06:25.194Z,29.79
2018-07-04T08:09:05.295Z,29.42
2018-07-04T08:11:45.128Z,29.13
2018-07-04T08:14:24.850Z,28.16
2018-07-04T08:17:04.842Z,28.46
2018-07-04T08:19:44.705Z,28.27
2018-07-04T08:22:24.568Z,28.37
2018-07-04T08:25:04.285Z,28.41
2018-07-04T08:27:44.312Z,27.98
2018-07-04T08:30:24.264Z,28.56
2018-07-04T08:33:04.031Z,28.96
2018-07-04T08:35:43.806Z,29.91
2018-07-04T08:38:23.472Z,29.69
2018-07-04T08:41:03.200Z,29.07
2018-07-04T08:43:43.061Z,29.20
2018-07-04T08:46:22.913Z,30.41
2018-07-04T08:49:02.723Z,30.76
2018-07-04T08:51:42.392Z,30.94
2018-07-04T08:54:22.505Z,30.80
2018-07-04T08:57:02.935Z,31.39
2018-07-04T08:59:42.682Z,31.60
2018-07-04T09:02:22.504Z,32.43
2018-07-04T09:05:02.330Z,32.88
2018-07-04T09:07:42.680Z,32.88
2018-07-04T09:10:22.428Z,32.33
2018-07-04T09:13:02.486Z,32.63
2018-07-04T09:15:42.525Z,32.15
2018-07-04T09:18:22.367Z,31.63
2018-07-04T09:21:02.142Z,32.72
2018-07-04T09:23:42.067Z,32.08
2018-07-04T09:26:21.795Z,33.37
2018-07-04T09:29:01.870Z,33.21
2018-07-04T09:31:41.752Z,32.40
2018-07-04T09:34:21.519Z,33.77
2018-07-04T09:37:01.093Z,34.54
2018-07-04T09:39:40.953Z,33.98
2018-07-04T09:42:20.642Z,33.68
2018-07-04T09:45:00.283Z,33.72
2018-07-04T09:47:41.664Z,32.62
2018-07-04T09:50:22.137Z,33.48
2018-07-04T09:53:01.838Z,33.86
2018-07-04T09:55:41.768Z,34.13
2018-07-04T09:58:21.516Z,34.19
2018-07-04T10:01:06.520Z,34.69
2018-07-04T10:03:46.515Z,34.10
2018-07-04T10:06:26.250Z,34.39
2018-07-04T10:09:06.131Z,33.33
2018-07-04T10:11:45.840Z,33.38
2018-07-04T10:14:25.536Z,33.48
2018-07-04T10:17:05.624Z,33.75
2018-07-04T10:19:45.544Z,34.73
2018-07-04T10:22:25.336Z,35.26
2018-07-04T10:25:05.333Z,34.73
2018-07-04T10:33:26.539Z,34.37
2018-07-04T10:36:06.598Z,33.41
2018-07-04T10:38:46.763Z,32.46
2018-07-04T10:41:26.712Z,33.62
2018-07-04T10:44:06.501Z,34.31
2018-07-04T10:46:46.396Z,32.95
2018-07-04T10:49:27.059Z,33.39
2018-07-04T10:52:07.531Z,34.80
2018-07-04T10:54:47.344Z,35.96
2018-07-04T10:57:28.820Z,36.03
2018-07-04T11:00:08.998Z,36.60
2018-07-04T11:02:49.571Z,35.65
2018-07-04T11:05:29.714Z,34.68
2018-07-04T11:08:11.289Z,34.60
2018-07-04T11:10:51.851Z,34.12
2018-07-04T11:13:31.726Z,33.59
2018-07-04T11:16:11.581Z,33.21
2018-07-04T11:18:51.383Z,32.45
2018-07-04T11:21:31.344Z,32.82
2018-07-04T11:24:11.157Z,33.80
2018-07-04T11:26:51.263Z,33.62
2018-07-04T11:29:30.974Z,32.75
2018-07-04T11:32:10.883Z,32.30
2018-07-04T11:34:50.649Z,31.36
2018-07-04T11:37:30.545Z,31.27
2018-07-04T11:40:10.423Z,31.27
2018-07-04T11:42:50.611Z,31.08
2018-07-04T11:45:30.518Z,30.88
2018-07-04T11:47:57.964Z,30.99
2018-07-04T11:50:25.609Z,30.98
2018-07-04T11:52:52.981Z,30.65
2018-07-04T11:55:20.306Z,30.58
2018-07-04T11:57:47.712Z,30.84
2018-07-04T12:00:15.081Z,30.71
2018-07-04T12:02:42.655Z,30.37
2018-07-04T12:05:22.268Z,29.72
2018-07-04T12:07:49.689Z,28.34
2018-07-04T12:10:17.029Z,27.78
2018-07-04T12:12:44.447Z,27.47
2018-07-04T12:15:11.851Z,27.36
2018-07-04T12:17:39.344Z,27.33
2018-07-04T12:20:06.721Z,27.36
2018-07-04T12:22:34.085Z,27.38
2018-07-04T12:25:02.185Z,27.37
2018-07-04T12:27:29.610Z,27.46
2018-07-04T12:29:56.976Z,27.66
2018-07-04T12:32:24.353Z,27.85
2018-07-04T12:34:51.776Z,28.01
2018-07-04T12:37:19.199Z,28.49
2018-07-04T12:39:46.596Z,28.81
2018-07-04T12:42:14.623Z,29.38
2018-07-04T12:44:42.041Z,29.72
2018-07-04T12:47:09.499Z,29.96
2018-07-04T12:49:37.488Z,30.28
2018-07-04T12:52:04.884Z,30.47
2018-07-04T12:54:37.557Z,30.52
2018-07-04T12:57:17.468Z,30.51
2018-07-04T12:59:57.644Z,30.70
2018-07-04T13:02:37.517Z,30.89
2018-07-04T13:05:17.198Z,31.34
2018-07-04T13:07:56.960Z,31.75
2018-07-04T13:10:37.241Z,32.31
2018-07-04T13:13:17.877Z,32.65
2018-07-04T13:15:57.478Z,33.59
2018-07-04T13:18:37.241Z,33.79
2018-07-04T13:21:16.990Z,34.09
2018-07-04T13:23:56.808Z,34.49
2018-07-04T13:26:36.984Z,34.97
2018-07-04T13:29:16.591Z,34.63
2018-07-04T13:31:57.530Z,34.54
2018-07-04T13:34:37.390Z,33.89
2018-07-04T13:37:17.060Z,33.40
2018-07-04T13:39:56.842Z,32.40
2018-07-04T13:42:36.700Z,31.77
2018-07-04T13:45:16.251Z,31.00
2018-07-04T13:47:55.760Z,30.80
2018-07-04T13:50:35.468Z,30.75
2018-07-04T13:53:15.255Z,30.60
2018-07-04T13:55:55.144Z,30.77
2018-07-04T13:58:34.883Z,30.73
2018-07-04T14:01:14.400Z,30.65
2018-07-04T14:03:54.075Z,30.85
2018-07-04T14:06:33.691Z,31.09
2018-07-04T14:09:13.328Z,31.07
2018-07-04T14:11:52.943Z,31.03
2018-07-04T14:14:32.491Z,30.88
2018-07-04T14:17:12.159Z,30.79
2018-07-04T14:19:51.878Z,30.63
2018-07-04T14:22:31.525Z,30.45
2018-07-04T14:25:11.536Z,30.08
2018-07-04T14:27:51.215Z,29.85
2018-07-04T14:30:31.382Z,28.84
2018-07-04T14:33:11.390Z,27.64
2018-07-04T14:35:51.169Z,27.16
2018-07-04T14:38:30.763Z,25.11
2018-07-04T14:41:10.624Z,24.19
2018-07-04T14:43:50.478Z,24.31
2018-07-04T14:46:30.115Z,24.44
2018-07-04T14:49:09.875Z,24.16
2018-07-04T14:51:49.518Z,24.09
2018-07-04T14:54:29.356Z,23.66
2018-07-04T14:57:09.095Z,22.99
2018-07-04T14:59:48.818Z,22.39
2018-07-04T15:02:28.696Z,22.31
2018-07-04T15:05:08.418Z,22.24
2018-07-04T15:07:48.147Z,22.21
2018-07-04T15:10:28.025Z,22.19
2018-07-04T15:13:07.798Z,22.33
2018-07-04T15:15:47.546Z,22.51
2018-07-04T15:18:27.282Z,22.64
2018-07-04T15:21:06.884Z,22.64
2018-07-04T15:23:46.437Z,22.55
2018-07-04T15:26:26.098Z,22.37
2018-07-04T15:29:05.715Z,21.56
2018-07-04T15:31:45.499Z,19.27
2018-07-04T15:34:25.331Z,18.92
2018-07-04T15:37:05.231Z,18.95
2018-07-04T15:39:44.905Z,18.73
2018-07-04T15:42:24.762Z,18.56
2018-07-04T15:45:04.374Z,18.47
2018-07-04T15:47:44.303Z,18.32
2018-07-04T15:50:24.224Z,18.31
2018-07-04T15:53:04.442Z,18.39
2018-07-04T15:55:44.295Z,18.44
2018-07-04T15:58:23.947Z,18.75
2018-07-04T16:01:03.836Z,19.22
2018-07-04T16:03:43.770Z,19.19
2018-07-04T16:06:23.560Z,19.34
2018-07-04T16:09:04.948Z,19.43
2018-07-04T16:11:44.795Z,19.49
2018-07-04T16:14:24.729Z,19.54
2018-07-04T16:17:04.905Z,19.57
2018-07-04T16:19:44.597Z,19.29
2018-07-04T16:22:24.331Z,19.44
2018-07-04T16:25:04.313Z,19.28
2018-07-04T16:27:44.105Z,19.18
2018-07-04T16:30:23.719Z,19.13
2018-07-04T16:33:03.403Z,19.27
2018-07-04T16:35:43.288Z,19.48
2018-07-04T16:38:22.958Z,19.33
2018-07-04T16:41:02.791Z,19.38
2018-07-04T16:43:42.970Z,19.34
2018-07-04T16:46:22.799Z,19.34
2018-07-04T16:49:02.516Z,19.40
2018-07-04T16:51:42.236Z,19.56
2018-07-04T16:54:22.035Z,19.84
2018-07-04T16:57:01.624Z,19.90
2018-07-04T16:59:41.316Z,20.01
2018-07-04T17:02:21.095Z,20.00
2018-07-04T17:05:01.009Z,19.96
2018-07-04T17:07:43.188Z,19.85
2018-07-04T17:10:41.360Z,19.81
2018-07-04T17:13:21.212Z,19.70
2018-07-04T17:16:01.119Z,19.68
2018-07-04T17:18:40.816Z,19.63
2018-07-04T17:21:20.531Z,19.55
2018-07-04T17:24:00.304Z,19.52
2018-07-04T17:26:40.149Z,19.44
2018-07-04T17:29:20.069Z,19.11
2018-07-04T17:32:00.088Z,19.08
2018-07-04T17:34:39.764Z,19.18
2018-07-04T17:37:19.566Z,18.80
2018-07-04T17:39:59.152Z,18.78
2018-07-04T17:42:39.019Z,18.76
2018-07-04T17:45:18.698Z,18.67
2018-07-04T17:47:58.504Z,18.60
2018-07-04T17:50:38.072Z,18.66
2018-07-04T17:53:19.220Z,18.66
2018-07-04T17:55:59.194Z,18.72
2018-07-04T17:58:38.924Z,18.81
2018-07-04T18:01:18.767Z,18.84
2018-07-04T18:03:58.781Z,18.88
2018-07-04T18:06:38.544Z,18.99
2018-07-04T18:09:18.354Z,19.16
2018-07-04T18:11:58.115Z,19.27
2018-07-04T18:14:37.762Z,19.21
2018-07-04T18:17:17.733Z,19.20
2018-07-04T18:19:57.462Z,18.49
2018-07-04T18:22:37.042Z,19.25
2018-07-04T18:25:16.764Z,19.29
2018-07-04T18:27:56.408Z,18.97
2018-07-04T18:30:36.186Z,18.88
2018-07-04T18:33:16.113Z,18.95
2018-07-04T18:35:55.876Z,18.97
2018-07-04T18:38:35.699Z,19.08
2018-07-04T18:41:15.637Z,19.20
2018-07-04T18:43:55.434Z,18.25
2018-07-04T18:46:35.257Z,19.12
2018-07-04T18:49:14.883Z,19.01
2018-07-04T18:51:57.990Z,19.02
2018-07-04T18:54:37.846Z,19.06
2018-07-04T18:57:27.277Z,19.00
2018-07-04T19:00:07.205Z,18.91
2018-07-04T19:02:46.844Z,18.91
2018-07-04T19:05:26.774Z,18.92
2018-07-04T19:08:06.498Z,19.01
2018-07-04T19:10:46.362Z,19.01
2018-07-04T19:13:26.169Z,19.07
2018-07-04T19:16:05.745Z,19.09
2018-07-04T19:18:45.495Z,19.14
2018-07-04T19:21:25.137Z,19.12
2018-07-04T19:24:05.144Z,19.14
2018-07-04T19:26:49.631Z,19.29
2018-07-04T19:29:29.522Z,19.42
2018-07-04T19:32:10.598Z,19.45
2018-07-04T19:34:50.356Z,19.40
2018-07-04T19:37:30.200Z,19.44
2018-07-04T19:40:09.978Z,19.38
2018-07-04T19:42:49.729Z,19.48
2018-07-04T19:45:29.506Z,19.55
2018-07-04T19:48:09.226Z,19.21
2018-07-04T19:50:48.976Z,19.50
2018-07-04T19:53:28.805Z,19.42
2018-07-04T19:56:08.659Z,19.34
2018-07-04T19:58:48.387Z,19.32
2018-07-04T20:01:28.303Z,19.26
2018-07-04T20:04:07.975Z,19.20
2018-07-04T20:06:47.617Z,19.13
2018-07-04T20:09:27.454Z,19.17
2018-07-04T20:12:07.185Z,19.11
2018-07-04T20:14:46.930Z,18.99
2018-07-04T20:17:26.780Z,18.96
2018-07-04T20:20:06.631Z,18.91
2018-07-04T20:22:46.760Z,18.90
2018-07-04T20:25:26.749Z,18.87
2018-07-04T20:28:06.383Z,18.88
2018-07-04T20:30:46.284Z,18.79
2018-07-04T20:33:25.961Z,18.79
2018-07-04T20:36:05.876Z,18.75
2018-07-04T20:38:45.664Z,18.73
2018-07-04T20:41:25.359Z,18.73
2018-07-04T20:44:05.256Z,18.72
2018-07-04T20:46:44.960Z,18.74
2018-07-04T20:49:24.947Z,18.82
2018-07-04T20:52:04.686Z,18.81
2018-07-04T20:54:44.493Z,18.68
2018-07-04T20:57:24.393Z,18.61
2018-07-04T21:00:04.257Z,18.59
2018-07-04T21:02:44.067Z,18.61
2018-07-04T21:05:23.862Z,18.66
2018-07-04T21:08:03.724Z,18.71
2018-07-04T21:10:43.631Z,18.78
2018-07-04T21:13:23.812Z,18.82
2018-07-04T21:16:03.709Z,18.84
2018-07-04T21:18:43.467Z,18.90
2018-07-04T21:21:23.197Z,18.91
2018-07-04T21:24:02.891Z,18.92
2018-07-04T21:26:42.729Z,18.99
2018-07-04T21:29:22.631Z,18.98
2018-07-04T21:32:02.477Z,18.93
2018-07-04T21:34:42.064Z,18.84
2018-07-04T21:37:21.820Z,18.72
2018-07-04T21:40:01.599Z,18.75
2018-07-04T21:42:41.360Z,18.80
2018-07-04T21:45:21.078Z,18.80
2018-07-04T21:48:00.758Z,18.76
2018-07-04T21:50:40.544Z,18.84
2018-07-04T21:53:20.379Z,18.78
2018-07-04T21:56:00.190Z,18.54
2018-07-04T21:58:39.804Z,18.46
2018-07-04T22:01:19.653Z,18.49
2018-07-04T22:03:59.642Z,18.50
2018-07-04T22:06:39.292Z,18.50
2018-07-04T22:09:19.072Z,18.42
2018-07-04T22:11:58.828Z,18.35
2018-07-04T22:14:38.401Z,18.36
2018-07-04T22:17:18.072Z,18.36
2018-07-04T22:19:57.676Z,18.33
2018-07-04T22:22:37.345Z,18.35
2018-07-04T22:25:17.296Z,18.39
2018-07-04T22:27:57.205Z,18.44
2018-07-04T22:30:37.087Z,18.44
2018-07-04T22:33:16.720Z,18.39
2018-07-04T22:35:56.624Z,18.36
2018-07-04T22:38:36.330Z,18.22
2018-07-04T22:41:16.027Z,18.22
2018-07-04T22:43:55.743Z,18.19
2018-07-04T22:46:35.692Z,18.11
2018-07-04T22:49:15.354Z,18.05
2018-07-04T22:51:55.362Z,18.02
2018-07-04T22:54:35.292Z,18.08
2018-07-04T22:57:15.080Z,18.07
2018-07-04T22:59:54.996Z,18.12
2018-07-04T23:02:34.796Z,18.20
2018-07-04T23:05:14.510Z,18.18
2018-07-04T23:07:54.346Z,18.06
2018-07-04T23:10:34.139Z,17.95
2018-07-04T23:13:13.895Z,17.93
2018-07-04T23:15:53.739Z,17.98
2018-07-04T23:18:33.432Z,17.96
2018-07-04T23:21:13.290Z,17.93
2018-07-04T23:23:52.995Z,17.95
2018-07-04T23:26:32.671Z,17.76
2018-07-04T23:29:12.477Z,17.75
2018-07-04T23:31:52.332Z,17.71
2018-07-04T23:34:32.082Z,17.72
2018-07-04T23:37:11.924Z,17.72
2018-07-04T23:39:51.579Z,17.74
2018-07-04T23:42:31.326Z,17.80
2018-07-04T23:45:10.902Z,17.84
2018-07-04T23:47:50.575Z,17.85
2018-07-04T23:50:30.430Z,17.82
2018-07-04T23:53:10.135Z,17.85
2018-07-04T23:55:49.962Z,17.95
2018-07-04T23:58:29.559Z,17.87
